Franklin, Minnesota
Current Conditions -  °F | °C
As of 9:53 AM on Friday 21 Nov 2014 (Local Time) from KRWF Reporting Station
Clear Clear  
Wind Chill:   Ceiling: Unl
Heat Index: 21°   Visibility: 10mi
Dew Point: 14°   Wind: 18mph
Humidity: 74%   Direction: 170°S
Pressure: 30.06"   Gusts: NA
Location:  44.53°N, 94.88°W
Report Text: KRWF 211553Z AUTO 17016KT 10SM CLR M06/M10 A3006 RMK AO2 SLP201 T10611100
Loading
Personal Weather Stations






























Interactive Weather Map New forecast layout! Learn more

10-Day Weather Forecast

Advertisements
Track Severe Weather on mobile